Time;durP1;ratioP1;P1;durP2;ratioP2;P2;SDS_P1;SDS_P2;PMS_P1;PMS_P2;Temp;Humidity;BMP_temperature;BMP_pressure;BME280_temperature;BME280_humidity;BME280_pressure;Samples;Min_cycle;Max_cycle;Signal;HPM_P1;HPM_P2
2021/08/20 00:01:38;;;;;;;3.20;1.70;;;;;;;;;;5032840;28;20440;-73
2021/08/20 00:04:06;;;;;;;2.27;2.07;;;;;;;;;;5032165;28;20420;-72
2021/08/20 00:09:36;;;;;;;1.47;1.37;;;;;;;;;;5032190;28;20845;-73
2021/08/20 00:12:02;;;;;;;1.87;1.70;;;;;;;;;;5032819;28;20420;-73
2021/08/20 00:14:28;;;;;;;2.60;1.80;;;;;;;;;;5032601;28;20479;-73
2021/08/20 00:16:54;;;;;;;1.67;1.57;;;;;;;;;;5032872;28;20487;-73
2021/08/20 00:19:20;;;;;;;2.10;1.70;;;;;;;;;;5032723;28;20416;-73
2021/08/20 00:24:50;;;;;;;3.30;2.20;;;;;;;;;;5032298;28;20439;-73
2021/08/20 00:27:16;;;;;;;2.17;1.97;;;;;;;;;;5032494;28;20441;-73
2021/08/20 00:29:42;;;;;;;2.43;2.23;;;;;;;;;;5032410;28;20447;-73
2021/08/20 00:32:08;;;;;;;1.93;1.80;;;;;;;;;;5032545;28;20424;-74
2021/08/20 00:34:34;;;;;;;2.90;1.93;;;;;;;;;;5032305;28;20559;-73
2021/08/20 00:40:05;;;;;;;2.83;1.77;;;;;;;;;;5034926;28;20497;-72
2021/08/20 00:42:31;;;;;;;2.10;1.90;;;;;;;;;;5036760;28;20465;-72
2021/08/20 00:44:57;;;;;;;4.50;1.77;;;;;;;;;;5036442;28;20839;-73
2021/08/20 00:47:23;;;;;;;2.50;1.87;;;;;;;;;;5036486;28;20427;-73
2021/08/20 00:49:50;;;;;;;1.70;1.60;;;;;;;;;;5036263;28;20478;-74
2021/08/20 00:52:17;;;;;;;2.10;1.80;;;;;;;;;;5034983;28;20440;-74
2021/08/20 00:54:43;;;;;;;2.10;1.90;;;;;;;;;;5035863;28;20958;-73
2021/08/20 00:57:09;;;;;;;2.43;1.80;;;;;;;;;;5036277;28;20427;-73
2021/08/20 00:59:35;;;;;;;2.60;2.10;;;;;;;;;;5036026;28;20458;-73
2021/08/20 01:02:02;;;;;;;3.10;1.90;;;;;;;;;;5036179;28;20887;-74
2021/08/20 01:04:28;;;;;;;3.60;2.10;;;;;;;;;;5035986;28;20501;-73
2021/08/20 01:09:57;;;;;;;3.20;2.33;;;;;;;;;;5035614;28;20466;-73
2021/08/20 01:12:23;;;;;;;2.33;2.13;;;;;;;;;;5036031;28;20415;-74
2021/08/20 01:14:50;;;;;;;3.17;2.50;;;;;;;;;;5035902;28;20471;-73
2021/08/20 01:17:17;;;;;;;3.03;2.13;;;;;;;;;;5036040;28;20482;-74
2021/08/20 01:19:43;;;;;;;2.83;2.47;;;;;;;;;;5036142;28;20430;-73
2021/08/20 01:25:12;;;;;;;3.40;1.93;;;;;;;;;;5035639;28;20835;-74
2021/08/20 01:27:38;;;;;;;1.97;1.60;;;;;;;;;;5035833;28;20412;-73
2021/08/20 01:30:05;;;;;;;3.20;1.80;;;;;;;;;;5035688;28;20794;-73
2021/08/20 01:32:31;;;;;;;2.60;1.80;;;;;;;;;;5035757;28;20933;-73
2021/08/20 01:34:57;;;;;;;2.00;1.90;;;;;;;;;;5035713;28;20501;-73
2021/08/20 01:37:23;;;;;;;1.73;1.30;;;;;;;;;;5035688;28;20962;-74
2021/08/20 01:39:49;;;;;;;3.63;1.80;;;;;;;;;;5035263;28;20419;-73
2021/08/20 01:42:15;;;;;;;3.37;1.67;;;;;;;;;;5035568;28;20883;-73
2021/08/20 01:44:41;;;;;;;3.90;2.17;;;;;;;;;;5035744;28;20948;-73
2021/08/20 01:47:11;;;;;;;1.90;1.80;;;;;;;;;;5035407;28;20748;-73
2021/08/20 01:49:38;;;;;;;1.73;1.50;;;;;;;;;;5035558;28;20807;-73
2021/08/20 01:55:08;;;;;;;2.30;1.50;;;;;;;;;;5034775;28;20561;-74
2021/08/20 01:57:40;;;;;;;1.70;1.60;;;;;;;;;;5035362;28;20500;-73
2021/08/20 02:00:06;;;;;;;1.90;1.47;;;;;;;;;;5032916;28;20420;-73
2021/08/20 02:02:32;;;;;;;2.33;1.60;;;;;;;;;;5033387;28;20423;-73
2021/08/20 02:04:58;;;;;;;2.90;1.77;;;;;;;;;;5034884;28;20503;-73
2021/08/20 02:10:27;;;;;;;1.97;1.83;;;;;;;;;;5034629;28;20470;-74
2021/08/20 02:12:53;;;;;;;1.93;1.73;;;;;;;;;;5035356;28;20427;-74
2021/08/20 02:15:19;;;;;;;1.83;1.70;;;;;;;;;;5034921;28;20475;-74
2021/08/20 02:17:45;;;;;;;2.00;1.80;;;;;;;;;;5034877;28;20419;-73
2021/08/20 02:20:12;;;;;;;1.90;1.70;;;;;;;;;;5034841;28;20419;-74
2021/08/20 02:22:38;;;;;;;2.73;1.87;;;;;;;;;;5035068;28;20404;-73
2021/08/20 02:25:04;;;;;;;2.10;1.60;;;;;;;;;;5034515;28;20416;-74
2021/08/20 02:27:30;;;;;;;4.70;2.60;;;;;;;;;;5034702;28;20396;-73
2021/08/20 02:29:56;;;;;;;3.20;1.90;;;;;;;;;;5034614;28;20508;-73
2021/08/20 02:32:22;;;;;;;2.77;1.73;;;;;;;;;;5034572;28;20412;-73
2021/08/20 02:34:47;;;;;;;2.13;1.93;;;;;;;;;;5034408;28;20471;-73
2021/08/20 02:40:17;;;;;;;2.67;1.60;;;;;;;;;;5034096;28;20438;-72
2021/08/20 02:42:43;;;;;;;2.10;1.90;;;;;;;;;;5034701;28;20818;-74
2021/08/20 02:45:10;;;;;;;2.97;2.00;;;;;;;;;;5034387;28;20895;-74
2021/08/20 02:47:36;;;;;;;4.00;2.00;;;;;;;;;;5034426;28;20817;-73
2021/08/20 02:50:02;;;;;;;2.23;2.03;;;;;;;;;;5034330;28;20420;-73
2021/08/20 02:55:33;;;;;;;1.90;1.70;;;;;;;;;;5033743;28;20872;-74
2021/08/20 02:57:59;;;;;;;3.03;1.63;;;;;;;;;;5034147;28;21021;-74
2021/08/20 03:00:25;;;;;;;1.93;1.43;;;;;;;;;;5034112;28;20452;-73
2021/08/20 03:02:51;;;;;;;3.37;2.27;;;;;;;;;;5032925;28;20503;-73
2021/08/20 03:05:18;;;;;;;2.50;2.27;;;;;;;;;;5033910;28;20420;-74
2021/08/20 03:10:47;;;;;;;2.50;2.30;;;;;;;;;;5033374;28;20883;-73
2021/08/20 03:13:14;;;;;;;3.20;2.27;;;;;;;;;;5034087;28;20467;-74
2021/08/20 03:15:40;;;;;;;2.63;2.00;;;;;;;;;;5033734;28;20985;-74
2021/08/20 03:18:06;;;;;;;4.27;2.37;;;;;;;;;;5034108;28;20477;-73
2021/08/20 03:20:32;;;;;;;2.57;2.27;;;;;;;;;;5033651;28;20420;-73
2021/08/20 03:22:58;;;;;;;2.27;1.60;;;;;;;;;;5033700;28;20812;-73
2021/08/20 03:25:24;;;;;;;2.37;1.87;;;;;;;;;;5033562;28;20411;-73
2021/08/20 03:27:50;;;;;;;3.90;2.37;;;;;;;;;;5033780;28;20810;-74
2021/08/20 03:30:16;;;;;;;3.23;2.33;;;;;;;;;;5033533;28;20446;-73
2021/08/20 03:32:42;;;;;;;3.23;2.20;;;;;;;;;;5033437;28;20419;-73
2021/08/20 03:35:08;;;;;;;2.43;2.23;;;;;;;;;;5031992;28;20467;-74
2021/08/20 03:40:38;;;;;;;2.40;2.03;;;;;;;;;;5033097;28;20466;-73
2021/08/20 03:43:04;;;;;;;2.70;2.20;;;;;;;;;;5033354;28;20717;-74
2021/08/20 03:45:30;;;;;;;2.27;1.77;;;;;;;;;;5033361;28;20416;-73
2021/08/20 03:47:56;;;;;;;4.73;2.40;;;;;;;;;;5033644;28;20412;-74
2021/08/20 03:50:22;;;;;;;2.43;2.10;;;;;;;;;;5033178;28;20937;-74
2021/08/20 03:55:51;;;;;;;4.33;2.10;;;;;;;;;;5032688;28;20593;-73
2021/08/20 03:58:18;;;;;;;3.70;1.70;;;;;;;;;;5033081;28;20470;-73
2021/08/20 04:00:51;;;;;;;3.37;2.30;;;;;;;;;;5033052;28;20432;-74
2021/08/20 04:03:17;;;;;;;2.40;2.20;;;;;;;;;;5031982;28;20913;-73
2021/08/20 04:05:43;;;;;;;2.90;2.00;;;;;;;;;;5032266;28;20432;-73
2021/08/20 04:08:09;;;;;;;2.30;2.10;;;;;;;;;;5032836;28;20415;-74
2021/08/20 04:10:35;;;;;;;2.43;2.23;;;;;;;;;;5032274;28;20558;-73
2021/08/20 04:13:01;;;;;;;2.23;2.03;;;;;;;;;;5032737;28;20417;-72
2021/08/20 04:15:27;;;;;;;5.80;2.43;;;;;;;;;;5032387;28;20467;-73
2021/08/20 04:17:53;;;;;;;2.20;2.00;;;;;;;;;;5032922;28;20416;-73
2021/08/20 04:20:19;;;;;;;2.40;1.70;;;;;;;;;;5032627;28;20416;-74
2021/08/20 04:25:48;;;;;;;2.30;2.10;;;;;;;;;;5032368;28;20474;-73
2021/08/20 04:28:14;;;;;;;2.20;2.00;;;;;;;;;;5032546;28;20438;-72
2021/08/20 04:30:40;;;;;;;3.10;1.90;;;;;;;;;;5032609;28;20459;-74
2021/08/20 04:33:06;;;;;;;4.03;2.00;;;;;;;;;;5032449;28;20423;-74
2021/08/20 04:35:32;;;;;;;2.40;1.83;;;;;;;;;;5032438;28;20616;-75
2021/08/20 04:41:02;;;;;;;2.27;2.07;;;;;;;;;;5032011;28;20515;-73
2021/08/20 04:43:28;;;;;;;5.00;1.83;;;;;;;;;;5032224;28;20419;-73
2021/08/20 04:45:54;;;;;;;5.63;3.03;;;;;;;;;;5032274;28;20424;-73
2021/08/20 04:48:20;;;;;;;2.27;1.90;;;;;;;;;;5032595;28;20420;-73
2021/08/20 04:50:46;;;;;;;2.03;1.60;;;;;;;;;;5032111;28;20416;-73
2021/08/20 04:56:15;;;;;;;2.40;2.20;;;;;;;;;;5031835;28;20505;-73
2021/08/20 04:58:42;;;;;;;4.00;2.10;;;;;;;;;;5032451;28;20419;-74
2021/08/20 05:01:07;;;;;;;1.93;1.77;;;;;;;;;;5032192;28;20477;-72
2021/08/20 05:03:34;;;;;;;2.47;2.27;;;;;;;;;;5032224;28;20906;-73
2021/08/20 05:06:00;;;;;;;2.63;2.10;;;;;;;;;;5030801;28;20463;-74
2021/08/20 05:08:26;;;;;;;3.73;2.30;;;;;;;;;;5032173;28;20899;-73
2021/08/20 05:10:52;;;;;;;3.20;2.50;;;;;;;;;;5031552;28;20459;-73
2021/08/20 05:13:18;;;;;;;2.80;2.10;;;;;;;;;;5032001;28;20852;-73
2021/08/20 05:15:44;;;;;;;2.10;1.90;;;;;;;;;;5031949;28;20472;-73
2021/08/20 05:18:10;;;;;;;2.90;2.07;;;;;;;;;;5032117;28;20408;-73
2021/08/20 05:20:36;;;;;;;2.23;1.70;;;;;;;;;;5032022;28;20416;-73
2021/08/20 05:26:05;;;;;;;3.97;2.10;;;;;;;;;;5032767;28;20477;-73
2021/08/20 05:28:31;;;;;;;5.27;2.20;;;;;;;;;;5035740;28;20745;-73
2021/08/20 05:30:57;;;;;;;2.37;2.03;;;;;;;;;;5034899;28;20442;-73
2021/08/20 05:33:23;;;;;;;2.77;2.23;;;;;;;;;;5035070;28;20455;-73
2021/08/20 05:35:49;;;;;;;1.73;1.63;;;;;;;;;;5034772;28;20562;-73
2021/08/20 05:41:19;;;;;;;2.27;1.83;;;;;;;;;;5034201;28;20482;-73
2021/08/20 05:43:45;;;;;;;3.17;2.30;;;;;;;;;;5034666;28;20419;-73
2021/08/20 05:46:11;;;;;;;2.70;2.37;;;;;;;;;;5029994;28;20411;-74
2021/08/20 05:48:37;;;;;;;2.43;1.90;;;;;;;;;;5034440;28;20416;-72
2021/08/20 05:51:03;;;;;;;4.23;2.90;;;;;;;;;;5034451;28;20473;-72
2021/08/20 05:56:32;;;;;;;2.80;1.93;;;;;;;;;;5034246;28;20566;-73
2021/08/20 05:58:58;;;;;;;3.20;2.00;;;;;;;;;;5034567;28;20415;-73
2021/08/20 06:01:24;;;;;;;2.47;2.10;;;;;;;;;;5034403;28;20422;-74
2021/08/20 06:03:50;;;;;;;2.80;2.03;;;;;;;;;;5034406;28;20474;-73
2021/08/20 06:06:16;;;;;;;3.07;2.20;;;;;;;;;;5034039;28;20933;-74
2021/08/20 06:11:46;;;;;;;2.10;2.00;;;;;;;;;;5033601;28;20438;-73
2021/08/20 06:14:12;;;;;;;2.60;2.40;;;;;;;;;;5034005;28;20542;-73
2021/08/20 06:16:38;;;;;;;2.90;2.70;;;;;;;;;;5033941;28;20439;-73
2021/08/20 06:19:04;;;;;;;2.83;2.63;;;;;;;;;;5034168;28;20412;-73
2021/08/20 06:21:30;;;;;;;2.73;2.53;;;;;;;;;;5032972;28;20594;-72
2021/08/20 06:23:56;;;;;;;2.10;1.93;;;;;;;;;;5032169;28;20926;-73
2021/08/20 06:26:22;;;;;;;2.50;2.30;;;;;;;;;;5033579;28;20424;-72
2021/08/20 06:28:48;;;;;;;2.30;2.10;;;;;;;;;;5032870;28;20943;-72
2021/08/20 06:31:14;;;;;;;2.97;1.67;;;;;;;;;;5033769;28;20495;-73
2021/08/20 06:33:40;;;;;;;2.60;1.93;;;;;;;;;;5034106;28;20515;-74
2021/08/20 06:36:06;;;;;;;4.40;2.47;;;;;;;;;;5033906;28;20443;-73
2021/08/20 06:41:35;;;;;;;2.47;2.27;;;;;;;;;;5033825;28;20407;-73
2021/08/20 06:44:02;;;;;;;3.73;2.97;;;;;;;;;;5034293;28;20481;-73
2021/08/20 06:46:27;;;;;;;3.20;1.93;;;;;;;;;;5034014;28;20408;-73
2021/08/20 06:48:54;;;;;;;3.03;2.77;;;;;;;;;;5032927;28;20481;-74
2021/08/20 06:51:19;;;;;;;2.70;2.40;;;;;;;;;;5033459;28;20482;-73
2021/08/20 06:56:49;;;;;;;3.13;2.20;;;;;;;;;;5033663;28;20414;-73
2021/08/20 06:59:15;;;;;;;3.43;2.43;;;;;;;;;;5033943;28;20777;-73
2021/08/20 07:01:41;;;;;;;4.83;2.80;;;;;;;;;;5034150;28;20416;-74
2021/08/20 07:04:07;;;;;;;3.17;2.40;;;;;;;;;;5032725;28;20984;-73
2021/08/20 07:06:33;;;;;;;4.00;2.53;;;;;;;;;;5033891;28;20458;-73
2021/08/20 07:12:02;;;;;;;3.33;3.03;;;;;;;;;;5033908;28;20439;-73
2021/08/20 07:14:28;;;;;;;3.33;3.10;;;;;;;;;;5033927;28;21093;-74
2021/08/20 07:16:54;;;;;;;4.13;3.83;;;;;;;;;;5033842;28;20427;-73
2021/08/20 07:19:20;;;;;;;3.23;2.53;;;;;;;;;;5033885;28;20911;-73
2021/08/20 07:21:46;;;;;;;3.63;2.93;;;;;;;;;;5033777;28;20479;-73
2021/08/20 07:27:15;;;;;;;4.47;3.17;;;;;;;;;;5033542;28;20422;-74
2021/08/20 07:29:41;;;;;;;3.40;3.10;;;;;;;;;;5030492;28;20468;-72
2021/08/20 07:32:08;;;;;;;4.80;3.70;;;;;;;;;;5031921;28;20488;-73
2021/08/20 07:34:33;;;;;;;4.27;3.50;;;;;;;;;;5031880;28;20965;-73
2021/08/20 07:36:59;;;;;;;4.67;3.90;;;;;;;;;;5031803;28;20419;-73
2021/08/20 07:42:29;;;;;;;7.60;5.27;;;;;;;;;;5031249;28;20447;-73
2021/08/20 07:44:55;;;;;;;3.97;3.40;;;;;;;;;;5031573;28;20943;-73
2021/08/20 07:47:21;;;;;;;5.20;4.67;;;;;;;;;;5031692;28;20426;-73
2021/08/20 07:49:47;;;;;;;4.93;4.43;;;;;;;;;;5030735;28;20408;-72
2021/08/20 07:52:13;;;;;;;4.67;4.27;;;;;;;;;;5031680;28;20420;-73
2021/08/20 07:54:39;;;;;;;4.63;3.87;;;;;;;;;;5031350;28;20471;-73
2021/08/20 07:57:05;;;;;;;4.37;3.67;;;;;;;;;;5031517;28;20798;-73
2021/08/20 07:59:32;;;;;;;5.23;3.70;;;;;;;;;;5031201;28;20420;-73
2021/08/20 08:01:58;;;;;;;3.70;3.40;;;;;;;;;;5031349;28;20424;-74
2021/08/20 08:04:24;;;;;;;4.67;4.20;;;;;;;;;;5031190;28;20428;-73
2021/08/20 08:06:50;;;;;;;3.80;3.50;;;;;;;;;;5031334;28;20424;-73
2021/08/20 08:12:19;;;;;;;5.17;3.93;;;;;;;;;;5031306;28;20833;-74
2021/08/20 08:14:45;;;;;;;5.17;4.27;;;;;;;;;;5031185;28;20538;-73
2021/08/20 08:17:11;;;;;;;8.90;4.10;;;;;;;;;;5031205;28;20427;-73
2021/08/20 08:19:37;;;;;;;4.23;3.90;;;;;;;;;;5030751;28;20499;-72
2021/08/20 08:22:03;;;;;;;5.07;4.50;;;;;;;;;;5031276;28;20420;-73
2021/08/20 08:27:32;;;;;;;3.60;3.30;;;;;;;;;;5030965;28;20454;-73
2021/08/20 08:29:59;;;;;;;4.87;4.37;;;;;;;;;;5031205;28;20466;-73
2021/08/20 08:32:25;;;;;;;4.10;3.70;;;;;;;;;;5031117;28;20407;-73
2021/08/20 08:34:51;;;;;;;8.23;3.50;;;;;;;;;;5031011;28;20471;-73
2021/08/20 08:37:21;;;;;;;3.90;3.40;;;;;;;;;;5030832;28;20412;-73
2021/08/20 08:39:47;;;;;;;4.17;3.70;;;;;;;;;;5030493;28;20419;-73
2021/08/20 08:42:13;;;;;;;5.90;3.67;;;;;;;;;;5030856;28;20432;-73
2021/08/20 08:44:39;;;;;;;3.90;3.53;;;;;;;;;;5031055;28;20891;-73
2021/08/20 08:47:05;;;;;;;4.50;3.17;;;;;;;;;;5031142;28;20401;-73
2021/08/20 08:49:33;;;;;;;4.40;4.00;;;;;;;;;;5030822;28;20412;-72
2021/08/20 08:51:59;;;;;;;6.17;3.73;;;;;;;;;;5030756;28;20424;-73
2021/08/20 08:57:28;;;;;;;5.00;3.03;;;;;;;;;;5031115;28;20436;-73
2021/08/20 08:59:54;;;;;;;3.60;3.30;;;;;;;;;;5031180;28;20420;-73
2021/08/20 09:02:22;;;;;;;3.00;2.73;;;;;;;;;;5033934;28;20490;-73
2021/08/20 09:04:58;;;;;;;3.60;3.30;;;;;;;;;;5034427;28;20420;-73
2021/08/20 09:07:24;;;;;;;3.63;2.60;;;;;;;;;;5034687;28;20477;-73
2021/08/20 09:10:09;;;;;;;3.20;2.90;;;;;;;;;;5033934;28;20471;-73
2021/08/20 09:12:36;;;;;;;3.30;3.00;;;;;;;;;;5034606;28;20404;-73
2021/08/20 09:15:02;;;;;;;2.90;2.50;;;;;;;;;;5034504;28;20982;-73
2021/08/20 09:17:35;;;;;;;3.10;2.60;;;;;;;;;;5034239;28;20767;-73
2021/08/20 09:20:18;;;;;;;3.40;3.10;;;;;;;;;;5034504;28;20411;-73
2021/08/20 09:22:44;;;;;;;3.43;2.77;;;;;;;;;;5034371;28;20424;-73
2021/08/20 09:25:29;;;;;;;4.10;3.07;;;;;;;;;;5032744;28;20922;-73
2021/08/20 09:28:14;;;;;;;5.00;3.10;;;;;;;;;;5034211;28;20898;-73
2021/08/20 09:30:41;;;;;;;2.63;2.43;;;;;;;;;;5034591;28;20420;-73
2021/08/20 09:33:11;;;;;;;3.47;2.60;;;;;;;;;;5034065;28;20432;-73
2021/08/20 09:35:38;;;;;;;3.80;3.10;;;;;;;;;;5033944;28;20476;-73
2021/08/20 09:38:08;;;;;;;3.70;3.40;;;;;;;;;;5032467;28;20978;-73
2021/08/20 09:40:34;;;;;;;2.90;2.70;;;;;;;;;;5033851;28;20517;-73
2021/08/20 09:43:11;;;;;;;3.77;2.80;;;;;;;;;;5034128;28;20426;-73
2021/08/20 09:45:38;;;;;;;4.43;3.63;;;;;;;;;;5033680;28;20416;-74
2021/08/20 09:48:07;;;;;;;4.63;4.30;;;;;;;;;;5033669;28;20420;-73
2021/08/20 09:50:41;;;;;;;4.83;4.43;;;;;;;;;;5033474;28;20423;-73
2021/08/20 09:53:11;;;;;;;5.13;4.50;;;;;;;;;;5032333;28;20459;-73
2021/08/20 09:55:42;;;;;;;5.30;4.90;;;;;;;;;;5033490;28;20479;-74
2021/08/20 09:58:10;;;;;;;5.47;4.33;;;;;;;;;;5033860;28;20417;-73
2021/08/20 10:00:36;;;;;;;4.67;4.27;;;;;;;;;;5033592;28;20431;-73
2021/08/20 10:03:04;;;;;;;4.10;3.80;;;;;;;;;;5029104;28;20410;-71
2021/08/20 10:05:30;;;;;;;4.20;3.90;;;;;;;;;;5033229;28;20420;-73
2021/08/20 10:07:56;;;;;;;4.40;3.70;;;;;;;;;;5033331;28;20481;-72
2021/08/20 10:10:22;;;;;;;4.10;3.80;;;;;;;;;;5033028;28;20483;-74
2021/08/20 10:12:49;;;;;;;3.50;3.13;;;;;;;;;;5033041;28;21108;-74
2021/08/20 10:15:15;;;;;;;3.33;2.93;;;;;;;;;;5033400;28;20801;-74
2021/08/20 10:17:41;;;;;;;4.10;3.50;;;;;;;;;;5033658;28;20478;-74
2021/08/20 10:20:08;;;;;;;3.53;3.23;;;;;;;;;;5033137;28;20428;-74
2021/08/20 10:22:35;;;;;;;4.13;3.67;;;;;;;;;;5033071;28;20411;-74
2021/08/20 10:28:04;;;;;;;4.73;4.03;;;;;;;;;;5033112;28;20411;-73
2021/08/20 10:30:32;;;;;;;3.60;3.33;;;;;;;;;;5031848;28;20436;-73
2021/08/20 10:33:02;;;;;;;4.33;3.87;;;;;;;;;;5032025;28;20411;-73
2021/08/20 10:35:47;;;;;;;4.53;4.13;;;;;;;;;;5032698;28;20479;-73
2021/08/20 10:38:24;;;;;;;3.97;3.67;;;;;;;;;;5032565;28;20399;-72
2021/08/20 10:41:09;;;;;;;4.67;4.00;;;;;;;;;;5032441;28;20415;-70
2021/08/20 10:43:48;;;;;;;4.10;3.80;;;;;;;;;;5032965;28;20507;-69
2021/08/20 10:46:32;;;;;;;5.20;3.77;;;;;;;;;;5033018;28;20762;-70
2021/08/20 10:49:15;;;;;;;4.57;4.07;;;;;;;;;;5032254;28;20416;-69
2021/08/20 10:51:53;;;;;;;4.67;3.30;;;;;;;;;;5032207;28;20459;-70
2021/08/20 10:54:24;;;;;;;4.30;3.97;;;;;;;;;;5031514;28;20459;-69
2021/08/20 10:56:50;;;;;;;3.50;3.20;;;;;;;;;;5032098;28;20419;-71
2021/08/20 10:59:35;;;;;;;4.50;4.07;;;;;;;;;;5032214;28;20403;-69
2021/08/20 11:02:19;;;;;;;7.37;4.23;;;;;;;;;;5031951;28;20423;-70
2021/08/20 11:05:00;;;;;;;4.07;3.70;;;;;;;;;;5031556;28;20427;-70
2021/08/20 11:07:41;;;;;;;3.80;3.50;;;;;;;;;;5031659;28;20893;-71
2021/08/20 11:10:10;;;;;;;3.97;3.33;;;;;;;;;;5031201;28;20665;-71
2021/08/20 11:12:41;;;;;;;4.40;4.00;;;;;;;;;;5031560;28;20542;-71
2021/08/20 11:15:25;;;;;;;4.20;3.87;;;;;;;;;;5031318;28;20476;-71
2021/08/20 11:17:51;;;;;;;4.00;3.70;;;;;;;;;;5031780;28;20415;-71
2021/08/20 11:20:21;;;;;;;3.80;3.50;;;;;;;;;;5031808;28;20455;-72
2021/08/20 11:25:51;;;;;;;3.27;2.97;;;;;;;;;;5031941;28;20419;-72
2021/08/20 11:28:18;;;;;;;3.40;3.10;;;;;;;;;;5032080;28;20428;-71
2021/08/20 11:30:53;;;;;;;4.70;2.83;;;;;;;;;;5032167;28;20416;-72
2021/08/20 11:33:21;;;;;;;3.87;3.30;;;;;;;;;;5032392;28;20424;-71
2021/08/20 11:35:48;;;;;;;5.23;4.00;;;;;;;;;;5032186;28;20475;-71
2021/08/20 11:41:35;;;;;;;4.20;3.90;;;;;;;;;;5031074;28;20495;-71
2021/08/20 11:44:05;;;;;;;3.90;3.60;;;;;;;;;;5032249;28;20455;-70
2021/08/20 11:46:42;;;;;;;5.70;3.20;;;;;;;;;;5032030;28;20416;-72
2021/08/20 11:49:09;;;;;;;5.47;3.47;;;;;;;;;;5032060;28;20453;-71
2021/08/20 11:51:36;;;;;;;3.63;3.13;;;;;;;;;;5031590;28;20416;-71
2021/08/20 11:57:06;;;;;;;6.50;4.30;;;;;;;;;;5030904;28;20422;-71
2021/08/20 11:59:32;;;;;;;4.13;3.57;;;;;;;;;;5031287;28;21249;-71
2021/08/20 12:02:00;;;;;;;4.30;3.00;;;;;;;;;;5030526;28;20416;-71
2021/08/20 12:04:26;;;;;;;7.63;3.60;;;;;;;;;;5030242;28;20412;-72
2021/08/20 12:06:52;;;;;;;4.30;3.57;;;;;;;;;;5030862;28;20446;-71
2021/08/20 12:12:21;;;;;;;4.00;3.70;;;;;;;;;;5030702;28;20586;-71
2021/08/20 12:14:47;;;;;;;4.70;3.40;;;;;;;;;;5030441;28;21063;-71
2021/08/20 12:17:21;;;;;;;3.90;3.50;;;;;;;;;;5026643;28;20426;-71
2021/08/20 12:19:47;;;;;;;6.93;3.70;;;;;;;;;;5028987;28;20478;-71
2021/08/20 12:22:16;;;;;;;3.70;3.40;;;;;;;;;;5029050;28;20420;-71
2021/08/20 12:27:46;;;;;;;5.77;3.93;;;;;;;;;;5028740;28;20427;-71
2021/08/20 12:30:16;;;;;;;7.60;3.83;;;;;;;;;;5029128;28;20420;-71
2021/08/20 12:32:56;;;;;;;3.40;3.10;;;;;;;;;;5028936;28;20422;-71
2021/08/20 12:35:22;;;;;;;3.53;3.23;;;;;;;;;;5028794;28;20480;-71
2021/08/20 12:38:01;;;;;;;5.30;3.53;;;;;;;;;;5030256;28;20498;-72
2021/08/20 12:43:37;;;;;;;3.63;2.97;;;;;;;;;;5030476;28;20413;-70
2021/08/20 12:46:11;;;;;;;3.17;2.97;;;;;;;;;;5030433;28;20923;-71
2021/08/20 12:48:57;;;;;;;3.93;3.30;;;;;;;;;;5030391;28;20410;-71
2021/08/20 12:51:23;;;;;;;3.33;3.03;;;;;;;;;;5030265;28;20419;-71
2021/08/20 12:54:02;;;;;;;4.03;3.07;;;;;;;;;;5029935;28;20879;-71
2021/08/20 12:56:32;;;;;;;3.03;2.83;;;;;;;;;;5030478;28;20435;-70
2021/08/20 12:59:02;;;;;;;2.67;2.47;;;;;;;;;;5030341;28;20416;-71
2021/08/20 13:01:28;;;;;;;4.63;2.97;;;;;;;;;;5029893;28;20460;-71
2021/08/20 13:03:54;;;;;;;4.40;3.07;;;;;;;;;;5029999;28;20415;-71
2021/08/20 13:06:20;;;;;;;6.30;2.87;;;;;;;;;;5029616;28;20434;-71
2021/08/20 13:08:46;;;;;;;4.30;3.13;;;;;;;;;;5029930;28;20507;-71
2021/08/20 13:11:12;;;;;;;3.60;3.00;;;;;;;;;;5029642;28;20579;-72
2021/08/20 13:13:38;;;;;;;3.53;3.23;;;;;;;;;;5030116;28;20416;-70
2021/08/20 13:16:04;;;;;;;3.33;3.03;;;;;;;;;;5028694;28;20511;-71
2021/08/20 13:18:30;;;;;;;3.20;2.73;;;;;;;;;;5030656;28;20454;-71
2021/08/20 13:20:57;;;;;;;3.50;3.20;;;;;;;;;;5030391;28;20451;-71
2021/08/20 13:23:24;;;;;;;3.57;3.23;;;;;;;;;;5030756;28;20420;-72
2021/08/20 13:28:53;;;;;;;4.20;3.20;;;;;;;;;;5030322;28;20458;-71
2021/08/20 13:31:19;;;;;;;3.33;3.03;;;;;;;;;;5030480;28;20415;-72
2021/08/20 13:33:45;;;;;;;3.70;3.40;;;;;;;;;;5030259;28;20488;-70
2021/08/20 13:36:11;;;;;;;3.57;3.27;;;;;;;;;;5030539;28;20474;-71
2021/08/20 13:38:37;;;;;;;3.30;3.00;;;;;;;;;;5030317;28;20926;-71
2021/08/20 13:44:07;;;;;;;3.37;3.07;;;;;;;;;;5030109;28;20443;-71
2021/08/20 13:46:33;;;;;;;4.27;3.33;;;;;;;;;;5030003;28;20823;-71
2021/08/20 13:48:59;;;;;;;3.53;3.23;;;;;;;;;;5033777;28;20416;-72
2021/08/20 13:51:25;;;;;;;3.00;2.77;;;;;;;;;;5033706;28;21028;-71
2021/08/20 13:53:51;;;;;;;3.63;3.33;;;;;;;;;;5029951;28;20494;-71
2021/08/20 13:59:20;;;;;;;4.33;3.93;;;;;;;;;;5032411;28;20434;-71
2021/08/20 14:01:46;;;;;;;5.13;3.67;;;;;;;;;;5032621;28;20850;-71
2021/08/20 14:04:12;;;;;;;3.40;3.07;;;;;;;;;;5032854;28;20418;-71
2021/08/20 14:06:38;;;;;;;3.27;2.93;;;;;;;;;;5033244;28;20416;-72
2021/08/20 14:09:04;;;;;;;3.97;3.17;;;;;;;;;;5032935;28;20423;-71
2021/08/20 14:14:34;;;;;;;3.43;3.20;;;;;;;;;;5031555;28;20465;-70
2021/08/20 14:17:00;;;;;;;5.73;3.03;;;;;;;;;;5033267;28;20447;-71
2021/08/20 14:19:26;;;;;;;6.23;3.13;;;;;;;;;;5033133;28;20420;-69
2021/08/20 14:21:52;;;;;;;2.80;2.60;;;;;;;;;;5033635;28;20899;-71
2021/08/20 14:24:18;;;;;;;3.30;2.60;;;;;;;;;;5032308;28;20463;-71
2021/08/20 14:29:47;;;;;;;3.60;3.03;;;;;;;;;;5033140;28;20451;-71
2021/08/20 14:32:13;;;;;;;3.27;3.00;;;;;;;;;;5033229;28;20924;-71
2021/08/20 14:34:39;;;;;;;5.20;2.80;;;;;;;;;;5032429;28;20531;-71
2021/08/20 14:37:05;;;;;;;4.00;3.07;;;;;;;;;;5033041;28;20895;-72
2021/08/20 14:39:31;;;;;;;3.60;2.97;;;;;;;;;;5032850;28;20412;-72
2021/08/20 14:45:02;;;;;;;3.47;3.17;;;;;;;;;;5032944;28;20550;-71
2021/08/20 14:47:28;;;;;;;3.50;2.70;;;;;;;;;;5032975;28;20408;-71
2021/08/20 14:49:54;;;;;;;3.20;2.63;;;;;;;;;;5032988;28;20903;-71
2021/08/20 14:52:20;;;;;;;3.23;2.90;;;;;;;;;;5032793;28;20436;-71
2021/08/20 14:54:46;;;;;;;3.67;2.77;;;;;;;;;;5032131;28;20475;-71
2021/08/20 14:57:12;;;;;;;3.43;3.13;;;;;;;;;;5032478;28;20419;-71
2021/08/20 14:59:38;;;;;;;7.20;3.40;;;;;;;;;;5032321;28;20472;-71
2021/08/20 15:02:04;;;;;;;5.53;3.70;;;;;;;;;;5032835;28;20412;-72
2021/08/20 15:04:32;;;;;;;7.10;3.13;;;;;;;;;;5031060;28;20435;-71
2021/08/20 15:06:58;;;;;;;3.23;2.93;;;;;;;;;;5032448;28;20914;-70
2021/08/20 15:09:24;;;;;;;3.90;3.43;;;;;;;;;;5032177;28;20519;-71
2021/08/20 15:14:53;;;;;;;3.90;3.50;;;;;;;;;;5032169;28;20533;-72
2021/08/20 15:17:19;;;;;;;3.60;3.30;;;;;;;;;;5032623;28;20435;-72
2021/08/20 15:19:45;;;;;;;3.20;3.00;;;;;;;;;;5032304;28;20462;-71
2021/08/20 15:22:11;;;;;;;3.23;3.00;;;;;;;;;;5032369;28;20448;-71
2021/08/20 15:24:37;;;;;;;4.20;3.87;;;;;;;;;;5031774;28;20790;-71
2021/08/20 15:30:09;;;;;;;3.60;3.30;;;;;;;;;;5032156;28;21018;-69
2021/08/20 15:32:35;;;;;;;4.63;4.20;;;;;;;;;;5032389;28;20466;-71
2021/08/20 15:35:01;;;;;;;3.10;2.83;;;;;;;;;;5030916;28;20456;-72
2021/08/20 15:37:27;;;;;;;7.37;4.57;;;;;;;;;;5031757;28;20515;-71
2021/08/20 15:39:54;;;;;;;5.00;3.40;;;;;;;;;;5031254;28;20510;-72
2021/08/20 15:45:23;;;;;;;4.50;3.80;;;;;;;;;;5031644;28;20507;-70
2021/08/20 15:47:50;;;;;;;4.80;3.03;;;;;;;;;;5031776;28;20432;-70
2021/08/20 15:50:16;;;;;;;4.00;3.43;;;;;;;;;;5031260;28;20578;-71
2021/08/20 15:52:42;;;;;;;4.93;3.43;;;;;;;;;;5031787;28;20415;-71
2021/08/20 16:00:57;;;;;;;3.00;2.80;;;;;;;;;;5031361;28;20534;-70
2021/08/20 16:03:24;;;;;;;3.20;2.60;;;;;;;;;;5030126;28;20860;-69
2021/08/20 16:05:50;;;;;;;3.53;2.43;;;;;;;;;;5031461;28;20558;-71
2021/08/20 16:08:16;;;;;;;3.23;2.93;;;;;;;;;;5031263;28;20424;-71
2021/08/20 16:10:42;;;;;;;3.33;2.87;;;;;;;;;;5030534;28;20478;-71
2021/08/20 16:13:08;;;;;;;3.20;2.90;;;;;;;;;;5031761;28;20416;-70
2021/08/20 16:15:34;;;;;;;5.00;2.77;;;;;;;;;;5031281;28;20478;-71
2021/08/20 16:18:00;;;;;;;4.20;3.27;;;;;;;;;;5031374;28;20495;-70
2021/08/20 16:20:27;;;;;;;3.33;3.03;;;;;;;;;;5031191;28;20503;-71
2021/08/20 16:22:53;;;;;;;3.23;2.93;;;;;;;;;;5030955;28;20414;-71
2021/08/20 16:25:19;;;;;;;3.83;3.07;;;;;;;;;;5030939;28;20535;-71
2021/08/20 16:27:45;;;;;;;3.17;2.87;;;;;;;;;;5031559;28;20408;-72
2021/08/20 16:30:12;;;;;;;3.87;2.70;;;;;;;;;;5030880;28;20420;-70
2021/08/20 16:32:38;;;;;;;2.57;2.37;;;;;;;;;;5031109;28;20407;-71
2021/08/20 16:35:05;;;;;;;3.10;2.90;;;;;;;;;;5030780;28;20473;-71
2021/08/20 16:37:31;;;;;;;3.13;2.83;;;;;;;;;;5031119;28;20444;-71
2021/08/20 16:39:57;;;;;;;3.77;3.47;;;;;;;;;;5029217;28;20515;-71
2021/08/20 16:45:27;;;;;;;4.20;2.70;;;;;;;;;;5030787;28;20419;-72
2021/08/20 16:47:53;;;;;;;3.90;3.60;;;;;;;;;;5030860;28;20420;-70
2021/08/20 16:50:19;;;;;;;5.10;3.40;;;;;;;;;;5030960;28;20419;-71
2021/08/20 16:52:45;;;;;;;3.00;2.80;;;;;;;;;;5031038;28;20451;-71
2021/08/20 16:55:11;;;;;;;3.10;2.80;;;;;;;;;;5030563;28;20468;-71
2021/08/20 17:00:41;;;;;;;3.10;2.77;;;;;;;;;;5030942;28;20419;-71
2021/08/20 17:03:08;;;;;;;3.60;3.23;;;;;;;;;;5030934;28;20415;-71
2021/08/20 17:05:34;;;;;;;4.70;3.10;;;;;;;;;;5030453;28;20408;-71
2021/08/20 17:08:00;;;;;;;2.97;2.77;;;;;;;;;;5030895;28;20416;-71